createdAt,value
2023-02-05T00:02:08.281Z,98631.88
2023-02-05T00:04:36.226Z,98635.28
2023-02-05T00:07:03.628Z,98626.22
2023-02-05T00:09:31.263Z,98622.78
2023-02-05T00:12:00.105Z,98620.06
2023-02-05T00:14:27.638Z,98631.13
2023-02-05T00:16:55.252Z,98626.22
2023-02-05T00:19:22.699Z,98616.22
2023-02-05T00:21:50.168Z,98615.69
2023-02-05T00:24:17.606Z,98616.00
2023-02-05T00:26:45.038Z,98608.41
2023-02-05T00:29:13.798Z,98611.91
2023-02-05T00:31:41.350Z,98607.66
2023-02-05T00:34:08.883Z,98614.56
2023-02-05T00:36:36.330Z,98602.50
2023-02-05T00:39:03.738Z,98600.94
2023-02-05T00:41:31.098Z,98597.69
2023-02-05T00:43:58.542Z,98605.78
2023-02-05T00:46:27.384Z,98599.97
2023-02-05T00:48:54.882Z,98595.13
2023-02-05T00:51:22.424Z,98599.81
2023-02-05T00:53:49.868Z,98606.16
2023-02-05T00:56:17.293Z,98607.34
2023-02-05T00:58:47.486Z,98617.09
2023-02-05T01:01:15.170Z,98613.88
2023-02-05T01:03:44.315Z,98619.84
2023-02-05T01:06:11.999Z,98615.56
2023-02-05T01:08:39.900Z,98619.66
2023-02-05T01:11:07.609Z,98619.53
2023-02-05T01:13:35.068Z,98617.72
2023-02-05T01:16:02.539Z,98616.16
2023-02-05T01:18:29.924Z,98607.50
2023-02-05T01:20:59.186Z,98612.50
2023-02-05T01:23:26.606Z,98604.78
2023-02-05T01:25:53.974Z,98611.66
2023-02-05T01:28:21.341Z,98609.94
2023-02-05T01:30:49.122Z,98613.13
2023-02-05T01:33:16.837Z,98603.50
2023-02-05T01:35:44.943Z,98606.53
2023-02-05T01:38:13.811Z,98590.00
2023-02-05T01:40:41.229Z,98586.44
2023-02-05T01:43:12.236Z,98582.94
2023-02-05T01:45:50.905Z,98582.34
2023-02-05T01:48:21.516Z,98576.84
2023-02-05T01:50:51.907Z,98568.78
2023-02-05T01:53:22.941Z,98579.22
2023-02-05T01:56:00.165Z,98572.56
2023-02-05T01:58:28.644Z,98571.88
2023-02-05T02:00:56.346Z,98575.53
2023-02-05T02:03:25.911Z,98574.00
2023-02-05T02:05:53.288Z,98566.66
2023-02-05T02:08:22.027Z,98555.00
2023-02-05T02:10:49.641Z,98563.84
2023-02-05T02:13:19.326Z,98556.22
2023-02-05T02:15:47.682Z,98553.78
2023-02-05T02:18:27.342Z,98553.16
2023-02-05T02:21:05.531Z,98554.16
2023-02-05T02:23:40.816Z,98546.44
2023-02-05T02:26:17.065Z,98539.78
2023-02-05T02:28:46.972Z,98532.44
2023-02-05T02:31:18.273Z,98529.25
2023-02-05T02:33:49.045Z,98523.19
2023-02-05T02:36:21.000Z,98523.97
2023-02-05T02:38:51.781Z,98528.22
2023-02-05T02:41:20.634Z,98515.50
2023-02-05T02:43:51.920Z,98516.41
2023-02-05T02:46:22.054Z,98520.84
2023-02-05T02:48:52.004Z,98520.19
2023-02-05T02:51:21.303Z,98519.41
2023-02-05T02:53:50.204Z,98521.22
2023-02-05T02:56:18.386Z,98516.09
2023-02-05T02:58:47.716Z,98510.94
2023-02-05T03:01:18.118Z,98509.28
2023-02-05T03:03:52.057Z,98517.19
2023-02-05T03:06:19.765Z,98515.75
2023-02-05T03:08:51.355Z,98513.31
2023-02-05T03:11:18.701Z,98512.53
2023-02-05T03:13:46.454Z,98511.03
2023-02-05T03:16:15.481Z,98511.88
2023-02-05T03:18:44.376Z,98512.69
2023-02-05T03:21:14.560Z,98503.25
2023-02-05T03:23:41.946Z,98507.63
2023-02-05T03:26:22.919Z,98501.81
2023-02-05T03:28:50.329Z,98496.81
2023-02-05T03:31:20.198Z,98507.13
2023-02-05T03:33:56.718Z,98500.16
2023-02-05T03:36:26.912Z,98496.69
2023-02-05T03:39:14.523Z,98492.50
2023-02-05T03:41:57.230Z,98493.22
2023-02-05T03:44:29.421Z,98491.56
2023-02-05T03:47:00.324Z,98483.16
2023-02-05T03:49:36.400Z,98486.59
2023-02-05T03:52:06.180Z,98482.19
2023-02-05T03:54:35.232Z,98482.19
2023-02-05T03:57:04.996Z,98480.31
2023-02-05T03:59:32.818Z,98484.47
2023-02-05T04:02:00.605Z,98480.91
2023-02-05T04:04:28.207Z,98469.66
2023-02-05T04:06:56.937Z,98463.66
2023-02-05T04:09:24.413Z,98471.34
2023-02-05T04:11:51.824Z,98483.22
2023-02-05T04:14:19.232Z,98482.28
2023-02-05T04:16:46.674Z,98488.41
2023-02-05T04:19:14.074Z,98484.03
2023-02-05T04:21:41.446Z,98486.38
2023-02-05T04:24:10.412Z,98475.28
2023-02-05T04:26:37.839Z,98463.38
2023-02-05T04:29:05.442Z,98467.03
2023-02-05T04:31:32.881Z,98466.44
2023-02-05T04:34:00.276Z,98463.94
2023-02-05T04:36:27.677Z,98458.66
2023-02-05T04:38:55.050Z,98467.09
2023-02-05T04:41:23.804Z,98473.91
2023-02-05T04:43:51.287Z,98474.13
2023-02-05T04:46:18.765Z,98474.19
2023-02-05T04:48:46.171Z,98478.56
2023-02-05T04:51:14.504Z,98466.66
2023-02-05T04:53:42.400Z,98472.63
2023-02-05T04:56:11.099Z,98474.19
2023-02-05T04:58:40.260Z,98476.63
2023-02-05T05:01:12.158Z,98471.41
2023-02-05T05:03:39.558Z,98473.09
2023-02-05T05:06:07.357Z,98468.50
2023-02-05T05:08:34.816Z,98463.81
2023-02-05T05:11:07.047Z,98468.66
2023-02-05T05:13:34.506Z,98463.53
2023-02-05T05:16:03.283Z,98467.78
2023-02-05T05:18:30.760Z,98466.91
2023-02-05T05:20:58.264Z,98472.91
2023-02-05T05:23:25.675Z,98470.25
2023-02-05T05:25:53.038Z,98473.44
2023-02-05T05:28:20.423Z,98468.97
2023-02-05T05:30:48.196Z,98470.78
2023-02-05T05:33:16.934Z,98470.03
2023-02-05T05:35:44.347Z,98473.56
2023-02-05T05:38:12.429Z,98478.81
2023-02-05T05:40:58.402Z,98469.66
2023-02-05T05:43:43.273Z,98479.16
2023-02-05T05:46:10.708Z,98486.03
2023-02-05T05:48:39.474Z,98480.06
2023-02-05T05:51:06.831Z,98478.25
2023-02-05T05:53:34.240Z,98476.25
2023-02-05T05:56:01.596Z,98475.09
2023-02-05T05:58:28.957Z,98476.63
2023-02-05T06:00:56.529Z,98472.19
2023-02-05T06:03:24.048Z,98475.56
2023-02-05T06:05:52.776Z,98480.47
2023-02-05T06:08:24.298Z,98482.13
2023-02-05T06:10:51.728Z,98485.56
2023-02-05T06:13:19.117Z,98477.00
2023-02-05T06:15:47.403Z,98469.09
2023-02-05T06:18:14.811Z,98468.88
2023-02-05T06:20:42.229Z,98469.63
2023-02-05T06:23:11.206Z,98469.47
2023-02-05T06:25:38.611Z,98471.03
2023-02-05T06:28:06.316Z,98469.28
2023-02-05T06:30:33.744Z,98467.66
2023-02-05T06:33:01.111Z,98476.25
2023-02-05T06:35:28.642Z,98467.66
2023-02-05T06:37:56.034Z,98468.47
2023-02-05T06:40:25.879Z,98465.78
2023-02-05T06:42:53.509Z,98456.25
2023-02-05T06:45:20.882Z,98458.59
2023-02-05T06:47:48.367Z,98461.81
2023-02-05T06:50:15.822Z,98461.44
2023-02-05T06:52:43.213Z,98463.03
2023-02-05T06:55:10.623Z,98455.00
2023-02-05T06:57:39.344Z,98461.03
2023-02-05T07:00:07.256Z,98458.47
2023-02-05T07:02:34.760Z,98454.19
2023-02-05T07:05:02.150Z,98459.97
2023-02-05T07:07:29.505Z,98467.47
2023-02-05T07:09:57.044Z,98462.19
2023-02-05T07:12:24.436Z,98463.69
2023-02-05T07:14:53.209Z,98462.69
2023-02-05T07:17:20.945Z,98461.72
2023-02-05T07:19:48.445Z,98467.53
2023-02-05T07:22:16.213Z,98459.66
2023-02-05T07:24:43.621Z,98465.53
2023-02-05T07:27:10.987Z,98464.72
2023-02-05T07:29:38.360Z,98468.19
2023-02-05T07:32:07.308Z,98473.34
2023-02-05T07:34:34.679Z,98479.47
2023-02-05T07:37:02.037Z,98468.34
2023-02-05T07:39:29.514Z,98468.88
2023-02-05T07:41:56.917Z,98466.22
2023-02-05T07:44:24.289Z,98466.22
2023-02-05T07:46:51.759Z,98471.19
2023-02-05T07:49:20.478Z,98462.50
2023-02-05T07:51:48.700Z,98459.09
2023-02-05T07:54:16.393Z,98454.69
2023-02-05T07:56:43.842Z,98450.13
2023-02-05T07:59:11.587Z,98447.41
2023-02-05T08:01:39.001Z,98441.94
2023-02-05T08:04:06.393Z,98434.97
2023-02-05T08:06:36.455Z,98425.41
2023-02-05T08:09:03.835Z,98418.44
2023-02-05T08:11:32.647Z,98426.84
2023-02-05T08:14:00.238Z,98424.09
2023-02-05T08:16:27.754Z,98431.75
2023-02-05T08:18:55.196Z,98429.09
2023-02-05T08:21:22.565Z,98431.75
2023-02-05T08:23:51.281Z,98419.78
2023-02-05T08:26:18.952Z,98421.44
2023-02-05T08:28:46.792Z,98418.69
2023-02-05T08:31:15.049Z,98417.53
2023-02-05T08:33:42.430Z,98430.25
2023-02-05T08:36:10.533Z,98415.53
2023-02-05T08:38:37.901Z,98417.97
2023-02-05T08:41:12.402Z,98413.47
2023-02-05T08:43:41.806Z,98411.38
2023-02-05T08:46:09.676Z,98413.69
2023-02-05T08:48:37.144Z,98420.44
2023-02-05T08:51:04.789Z,98411.03
2023-02-05T08:55:19.268Z,98409.22
2023-02-05T08:57:47.046Z,98399.84
2023-02-05T09:00:16.097Z,98411.78
2023-02-05T09:02:44.737Z,98396.28
2023-02-05T09:05:13.520Z,98390.19
2023-02-05T09:07:42.002Z,98386.88
2023-02-05T09:10:11.860Z,98387.72
2023-02-05T09:12:41.356Z,98376.56
2023-02-05T09:15:10.024Z,98364.44
2023-02-05T09:17:37.699Z,98357.78
2023-02-05T09:20:06.788Z,98355.31
2023-02-05T09:22:34.370Z,98340.50
2023-02-05T09:25:01.983Z,98345.50
2023-02-05T09:27:30.543Z,98352.31
2023-02-05T09:29:59.823Z,98347.00
2023-02-05T09:32:27.382Z,98348.66
2023-02-05T09:34:55.029Z,98351.78
2023-02-05T09:37:23.065Z,98341.47
2023-02-05T09:40:21.641Z,98348.47
2023-02-05T09:42:45.456Z,98357.13
2023-02-05T09:45:34.035Z,98350.31
2023-02-05T09:48:15.104Z,98351.97
2023-02-05T09:50:43.802Z,98356.94
2023-02-05T09:53:19.724Z,98353.44
2023-02-05T09:55:48.212Z,98344.91
2023-02-05T09:58:18.508Z,98335.44
2023-02-05T10:00:50.304Z,98336.09
2023-02-05T10:03:25.518Z,98332.50
2023-02-05T10:06:08.946Z,98333.31
2023-02-05T10:08:42.040Z,98336.72
2023-02-05T10:11:18.238Z,98338.56
2023-02-05T10:13:49.365Z,98332.66
2023-02-05T10:16:57.542Z,98321.53
2023-02-05T10:19:47.688Z,98317.22
2023-02-05T10:22:22.259Z,98323.84
2023-02-05T10:25:05.050Z,98307.38
2023-02-05T10:27:39.625Z,98300.38
2023-02-05T10:30:16.974Z,98299.38
2023-02-05T10:32:56.292Z,98294.22
2023-02-05T10:35:27.223Z,98296.78
2023-02-05T10:37:57.954Z,98291.66
2023-02-05T10:40:29.475Z,98291.56
2023-02-05T10:43:02.709Z,98293.13
2023-02-05T10:45:31.262Z,98286.88
2023-02-05T10:48:32.670Z,98291.88
2023-02-05T10:51:03.326Z,98285.69
2023-02-05T10:53:32.389Z,98288.16
2023-02-05T10:56:02.679Z,98289.56
2023-02-05T10:58:39.127Z,98290.22
2023-02-05T11:01:07.175Z,98286.63
2023-02-05T11:03:36.822Z,98289.75
2023-02-05T11:06:10.078Z,98288.09
2023-02-05T11:08:39.574Z,98283.03
2023-02-05T11:11:08.861Z,98282.00
2023-02-05T11:13:42.879Z,98281.19
2023-02-05T11:16:11.151Z,98279.44
2023-02-05T11:18:44.056Z,98281.19
2023-02-05T11:21:11.591Z,98276.56
2023-02-05T11:23:41.000Z,98267.94
2023-02-05T11:26:12.005Z,98267.66
2023-02-05T11:28:40.747Z,98274.28
2023-02-05T11:31:25.267Z,98273.19
2023-02-05T11:34:11.964Z,98267.19
2023-02-05T11:36:48.562Z,98273.47
2023-02-05T11:39:41.425Z,98264.44
2023-02-05T11:42:11.298Z,98258.38
2023-02-05T11:44:48.274Z,98248.78
2023-02-05T11:47:26.406Z,98242.91
2023-02-05T11:49:56.296Z,98235.44
2023-02-05T11:52:28.624Z,98234.72
2023-02-05T11:54:56.493Z,98232.03
2023-02-05T11:57:33.806Z,98227.59
2023-02-05T12:00:03.615Z,98231.84
2023-02-05T12:02:36.572Z,98235.06
2023-02-05T12:05:13.311Z,98234.06
2023-02-05T12:07:46.053Z,98227.78
2023-02-05T12:10:18.642Z,98225.75
2023-02-05T12:12:52.580Z,98222.34
2023-02-05T12:15:25.765Z,98220.59
2023-02-05T12:18:02.286Z,98215.63
2023-02-05T12:20:35.374Z,98204.41
2023-02-05T12:23:42.044Z,98199.69
2023-02-05T12:26:27.350Z,98183.78
2023-02-05T12:29:08.848Z,98186.47
2023-02-05T12:31:53.795Z,98182.16
2023-02-05T12:34:29.572Z,98175.16
2023-02-05T12:37:20.501Z,98179.38
2023-02-05T12:39:53.699Z,98179.94
2023-02-05T12:42:32.709Z,98181.56
2023-02-05T12:45:25.920Z,98175.59
2023-02-05T12:48:02.604Z,98176.22
2023-02-05T12:50:48.117Z,98173.53
2023-02-05T12:53:39.619Z,98174.38
2023-02-05T12:56:22.924Z,98167.38
2023-02-05T12:58:56.730Z,98160.34
2023-02-05T13:01:38.097Z,98158.00
2023-02-05T13:04:12.677Z,98169.94
2023-02-05T13:06:45.576Z,98161.31
2023-02-05T13:09:17.303Z,98166.97
2023-02-05T13:11:52.680Z,98163.50
2023-02-05T13:14:22.673Z,98154.09
2023-02-05T13:16:55.070Z,98151.50
2023-02-05T13:19:29.382Z,98156.22
2023-02-05T13:22:16.249Z,98157.47
2023-02-05T13:25:08.373Z,98156.59
2023-02-05T13:27:58.782Z,98150.63
2023-02-05T13:30:31.757Z,98149.59
2023-02-05T13:33:04.493Z,98148.78
2023-02-05T13:35:38.599Z,98145.28
2023-02-05T13:38:28.524Z,98146.28
2023-02-05T13:41:21.428Z,98141.56
2023-02-05T13:44:06.845Z,98148.56
2023-02-05T13:46:49.189Z,98147.69
2023-02-05T13:49:59.106Z,98141.63
2023-02-05T13:52:43.133Z,98143.28
2023-02-05T13:55:36.192Z,98139.06
2023-02-05T13:58:20.351Z,98148.44
2023-02-05T14:00:57.073Z,98141.63
2023-02-05T14:03:35.228Z,98140.91
2023-02-05T14:06:22.477Z,98146.06
2023-02-05T14:08:52.678Z,98146.78
2023-02-05T14:11:20.437Z,98145.84
2023-02-05T14:14:23.542Z,98145.03
2023-02-05T14:16:53.862Z,98152.69
2023-02-05T14:19:25.720Z,98150.84
2023-02-05T14:22:03.330Z,98157.47
2023-02-05T14:24:45.930Z,98152.91
2023-02-05T14:27:50.357Z,98153.56
2023-02-05T14:30:37.756Z,98149.22
2023-02-05T14:33:44.824Z,98148.50
2023-02-05T14:36:45.563Z,98157.63
2023-02-05T14:39:22.932Z,98146.88
2023-02-05T14:41:55.880Z,98153.16
2023-02-05T14:44:28.142Z,98152.69
2023-02-05T14:47:02.469Z,98143.50
2023-02-05T14:49:40.189Z,98147.00
2023-02-05T14:52:19.347Z,98152.69
2023-02-05T14:54:50.188Z,98146.44
2023-02-05T14:57:25.408Z,98147.16
2023-02-05T14:59:56.455Z,98142.94
2023-02-05T15:03:00.980Z,98146.22
2023-02-05T15:05:37.803Z,98149.38
2023-02-05T15:08:15.184Z,98158.75
2023-02-05T15:10:54.638Z,98161.97
2023-02-05T15:13:24.835Z,98153.63
2023-02-05T15:16:17.073Z,98163.56
2023-02-05T15:18:46.590Z,98159.84
2023-02-05T15:21:23.191Z,98164.28
2023-02-05T15:23:54.501Z,98165.22
2023-02-05T15:26:29.173Z,98167.78
2023-02-05T15:29:05.451Z,98162.63
2023-02-05T15:31:38.282Z,98166.22
2023-02-05T15:34:16.838Z,98159.84
2023-02-05T15:36:50.730Z,98164.84
2023-02-05T15:39:27.882Z,98156.91
2023-02-05T15:41:58.791Z,98163.72
2023-02-05T15:44:29.469Z,98164.63
2023-02-05T15:46:59.272Z,98168.16
2023-02-05T15:49:33.470Z,98180.66
2023-02-05T15:52:03.261Z,98179.72
2023-02-05T15:54:35.485Z,98178.09
2023-02-05T15:57:05.503Z,98179.94
2023-02-05T15:59:34.981Z,98183.50
2023-02-05T16:02:09.034Z,98181.13
2023-02-05T16:04:38.300Z,98188.94
2023-02-05T16:07:22.087Z,98189.06
2023-02-05T16:09:53.979Z,98198.34
2023-02-05T16:12:21.751Z,98209.41
2023-02-05T16:14:58.876Z,98200.72
2023-02-05T16:17:31.627Z,98207.72
2023-02-05T16:20:13.433Z,98216.38
2023-02-05T16:22:45.935Z,98217.13
2023-02-05T16:25:27.941Z,98218.69
2023-02-05T16:27:57.295Z,98224.28
2023-02-05T16:30:32.040Z,98218.19
2023-02-05T16:33:02.090Z,98218.41
2023-02-05T16:35:33.871Z,98222.63
2023-02-05T16:38:08.806Z,98231.09
2023-02-05T16:40:40.329Z,98228.41
2023-02-05T16:43:28.228Z,98224.94
2023-02-05T16:46:34.828Z,98225.75
2023-02-05T16:49:04.541Z,98226.13
2023-02-05T16:51:39.353Z,98223.19
2023-02-05T16:54:30.832Z,98219.06
2023-02-05T16:57:03.356Z,98220.06
2023-02-05T16:59:34.241Z,98228.47
2023-02-05T17:02:03.382Z,98234.44
2023-02-05T17:04:33.937Z,98240.69
2023-02-05T17:07:02.946Z,98248.34
2023-02-05T17:09:35.359Z,98245.84
2023-02-05T17:12:25.925Z,98249.53
2023-02-05T17:14:55.325Z,98256.34
2023-02-05T17:17:23.730Z,98269.13
2023-02-05T17:20:07.718Z,98270.06
2023-02-05T17:22:35.340Z,98270.97
2023-02-05T17:25:05.993Z,98259.09
2023-02-05T17:27:36.921Z,98261.88
2023-02-05T17:30:06.801Z,98263.50
2023-02-05T17:32:34.516Z,98265.94
2023-02-05T17:35:01.982Z,98262.13
2023-02-05T17:37:29.472Z,98262.22
2023-02-05T17:39:57.775Z,98264.63
2023-02-05T17:42:29.849Z,98261.13
2023-02-05T17:44:57.367Z,98256.16
2023-02-05T17:47:24.841Z,98259.84
2023-02-05T17:49:52.343Z,98259.75
2023-02-05T17:52:19.886Z,98262.22
2023-02-05T17:54:47.408Z,98274.94
2023-02-05T17:57:17.958Z,98283.56
2023-02-05T17:59:48.135Z,98282.84
2023-02-05T18:02:16.623Z,98294.00
2023-02-05T18:04:45.015Z,98296.56
2023-02-05T18:07:20.711Z,98298.13
2023-02-05T18:09:48.600Z,98282.59
2023-02-05T18:12:16.212Z,98272.28
2023-02-05T18:14:43.708Z,98273.09
2023-02-05T18:17:12.643Z,98269.69
2023-02-05T18:19:40.180Z,98269.94
2023-02-05T18:22:07.892Z,98271.81
2023-02-05T18:24:36.941Z,98265.19
2023-02-05T18:27:07.492Z,98282.50
2023-02-05T18:29:35.219Z,98287.66
2023-02-05T18:32:02.876Z,98286.72
2023-02-05T18:34:31.813Z,98279.72
2023-02-05T18:37:00.120Z,98289.84
2023-02-05T18:39:29.452Z,98279.56
2023-02-05T18:41:57.330Z,98281.28
2023-02-05T18:44:25.103Z,98289.84
2023-02-05T18:46:53.145Z,98298.41
2023-02-05T18:49:21.107Z,98297.59
2023-02-05T18:51:49.941Z,98306.31
2023-02-05T18:54:17.525Z,98310.84
2023-02-05T18:56:45.038Z,98319.59
2023-02-05T18:59:15.717Z,98318.72
2023-02-05T19:01:43.716Z,98317.09
2023-02-05T19:04:13.296Z,98321.50
2023-02-05T19:06:42.241Z,98320.75
2023-02-05T19:09:11.777Z,98320.97
2023-02-05T19:11:44.425Z,98337.50
2023-02-05T19:14:14.804Z,98347.81
2023-02-05T19:16:43.112Z,98353.88
2023-02-05T19:19:13.227Z,98357.38
2023-02-05T19:21:41.699Z,98362.81
2023-02-05T19:24:12.096Z,98374.19
2023-02-05T19:26:41.721Z,98360.56
2023-02-05T19:29:14.149Z,98363.22
2023-02-05T19:31:41.916Z,98363.22
2023-02-05T19:34:09.820Z,98363.22
2023-02-05T19:36:37.792Z,98361.38
2023-02-05T19:39:07.931Z,98359.75
2023-02-05T19:41:37.775Z,98357.91
2023-02-05T19:44:07.500Z,98361.13
2023-02-05T19:46:37.380Z,98372.91
2023-02-05T19:49:06.808Z,98371.00
2023-02-05T19:51:34.709Z,98378.47
2023-02-05T19:54:04.102Z,98391.44
2023-02-05T19:56:32.394Z,98385.53
2023-02-05T19:59:01.323Z,98377.25
2023-02-05T20:01:30.216Z,98379.22
2023-02-05T20:03:59.818Z,98384.50
2023-02-05T20:06:28.497Z,98371.78
2023-02-05T20:08:56.731Z,98370.22
2023-02-05T20:11:24.430Z,98368.56
2023-02-05T20:13:53.572Z,98370.06
2023-02-05T20:16:24.160Z,98381.66
2023-02-05T20:18:54.880Z,98382.94
2023-02-05T20:21:22.765Z,98394.56
2023-02-05T20:24:01.360Z,98402.28
2023-02-05T20:26:30.356Z,98410.22
2023-02-05T20:29:30.717Z,98419.22
2023-02-05T20:32:01.870Z,98422.22
2023-02-05T20:34:32.408Z,98432.78
2023-02-05T20:37:04.223Z,98435.53
2023-02-05T20:39:34.744Z,98436.63
2023-02-05T20:42:03.424Z,98434.19
2023-02-05T20:44:33.748Z,98443.75
2023-02-05T20:47:02.879Z,98444.50
2023-02-05T20:49:30.627Z,98457.97
2023-02-05T20:51:58.189Z,98444.75
2023-02-05T20:54:25.805Z,98444.31
2023-02-05T20:56:57.014Z,98437.13
2023-02-05T20:59:24.767Z,98445.53
2023-02-05T21:01:53.637Z,98438.56
2023-02-05T21:04:22.772Z,98434.16
2023-02-05T21:06:50.331Z,98443.44
2023-02-05T21:09:18.081Z,98445.88
2023-02-05T21:11:45.948Z,98439.78
2023-02-05T21:14:13.580Z,98439.44
2023-02-05T21:16:41.124Z,98442.75
2023-02-05T21:19:09.401Z,98449.56
2023-02-05T21:21:38.524Z,98449.47
2023-02-05T21:24:08.860Z,98452.13
2023-02-05T21:26:38.115Z,98453.13
2023-02-05T21:29:08.178Z,98455.91
2023-02-05T21:31:39.345Z,98465.22
2023-02-05T21:34:08.922Z,98473.00
2023-02-05T21:36:37.796Z,98478.16
2023-02-05T21:39:05.805Z,98480.06
2023-02-05T21:41:33.351Z,98489.00
2023-02-05T21:44:01.296Z,98484.75
2023-02-05T21:46:30.573Z,98490.66
2023-02-05T21:48:59.806Z,98492.31
2023-02-05T21:51:29.492Z,98490.66
2023-02-05T21:54:00.793Z,98496.75
2023-02-05T21:56:30.654Z,98508.13
2023-02-05T21:58:58.410Z,98510.97
2023-02-05T22:01:27.777Z,98512.03
2023-02-05T22:03:56.910Z,98514.81
2023-02-05T22:06:26.117Z,98520.78
2023-02-05T22:08:54.226Z,98514.88
2023-02-05T22:11:23.683Z,98528.84
2023-02-05T22:13:53.341Z,98531.59
2023-02-05T22:16:23.511Z,98536.88
2023-02-05T22:18:51.257Z,98534.31
2023-02-05T22:21:21.521Z,98542.22
2023-02-05T22:23:50.902Z,98543.22
2023-02-05T22:26:20.931Z,98539.97
2023-02-05T22:28:50.210Z,98541.88
2023-02-05T22:31:19.607Z,98550.53
2023-02-05T22:33:48.629Z,98555.59
2023-02-05T22:36:17.924Z,98563.16
2023-02-05T22:38:45.849Z,98558.81
2023-02-05T22:41:15.082Z,98553.69
2023-02-05T22:43:42.873Z,98557.19
2023-02-05T22:46:13.770Z,98569.22
2023-02-05T22:48:43.015Z,98569.94
2023-02-05T22:51:12.574Z,98565.66
2023-02-05T22:53:40.330Z,98567.22
2023-02-05T22:56:09.687Z,98578.03
2023-02-05T22:58:40.438Z,98575.28
2023-02-05T23:01:09.321Z,98584.63
2023-02-05T23:03:38.818Z,98586.84
2023-02-05T23:06:10.949Z,98588.25
2023-02-05T23:08:39.167Z,98593.34
2023-02-05T23:11:07.537Z,98601.72
2023-02-05T23:13:35.320Z,98595.75
2023-02-05T23:16:07.726Z,98601.06
2023-02-05T23:18:35.481Z,98603.03
2023-02-05T23:21:08.488Z,98608.63
2023-02-05T23:23:36.143Z,98611.28
2023-02-05T23:26:09.090Z,98611.34
2023-02-05T23:28:37.228Z,98599.41
2023-02-05T23:31:05.222Z,98601.97
2023-02-05T23:33:33.889Z,98600.22
2023-02-05T23:36:02.988Z,98599.22
2023-02-05T23:38:32.209Z,98606.13
2023-02-05T23:41:00.093Z,98608.69
2023-02-05T23:43:27.962Z,98607.81
2023-02-05T23:45:55.954Z,98618.81
2023-02-05T23:48:23.619Z,98613.53
2023-02-05T23:50:52.506Z,98626.97
2023-02-05T23:53:22.002Z,98626.84
2023-02-05T23:55:53.098Z,98628.56
2023-02-05T23:58:23.118Z,98625.16
